Time;durP1;ratioP1;P1;durP2;ratioP2;P2;SDS_P1;SDS_P2;PMS_P1;PMS_P2;Temp;Humidity;BMP_temperature;BMP_pressure;BME280_temperature;BME280_humidity;BME280_pressure;Samples;Min_cycle;Max_cycle;Signal;HPM_P1;HPM_P2
2022/12/22 03:25:56;;;;;;;19.45;13.50;;;;;;;8.07;100.00;100091.06;5055011;28;20125;-56
2022/12/22 03:28:27;;;;;;;18.92;13.73;;;;;;;8.09;100.00;100085.72;5054935;28;20057;-56
2022/12/22 03:31:01;;;;;;;21.30;14.10;;;;;;;8.12;100.00;100082.88;5055080;28;20033;-56
2022/12/22 03:33:31;;;;;;;18.75;13.52;;;;;;;8.12;100.00;100090.75;5054959;28;20047;-57
2022/12/22 03:36:00;;;;;;;16.70;12.50;;;;;;;8.14;100.00;100078.41;5053194;28;20530;-56
2022/12/22 03:38:29;;;;;;;17.45;13.15;;;;;;;8.16;100.00;100070.44;5051164;28;20040;-57
2022/12/22 03:40:57;;;;;;;15.65;12.40;;;;;;;8.16;100.00;100073.88;5053877;28;20114;-56
2022/12/22 03:46:31;;;;;;;17.73;12.70;;;;;;;8.18;100.00;100069.38;5055011;28;20052;-56
2022/12/22 03:49:12;;;;;;;17.33;12.85;;;;;;;8.18;100.00;100056.28;5055066;28;20504;-55
2022/12/22 03:51:43;;;;;;;18.42;13.68;;;;;;;8.13;100.00;100055.75;5051703;28;20487;-56
2022/12/22 03:54:13;;;;;;;19.25;13.43;;;;;;;8.14;100.00;100052.19;5052472;28;20049;-56
2022/12/22 03:56:41;;;;;;;17.25;12.48;;;;;;;8.18;100.00;100058.06;5054624;28;20074;-52
2022/12/22 03:59:10;;;;;;;18.40;12.75;;;;;;;8.17;100.00;100052.00;5054733;28;20045;-51
2022/12/22 04:01:40;;;;;;;18.02;12.82;;;;;;;8.20;100.00;100054.41;5054594;28;20128;-49
2022/12/22 04:04:12;;;;;;;17.15;13.07;;;;;;;8.22;100.00;100054.28;5054183;28;20045;-54
2022/12/22 04:06:40;;;;;;;18.20;12.90;;;;;;;8.21;100.00;100047.41;5053711;28;20041;-52
2022/12/22 04:09:09;;;;;;;18.33;13.52;;;;;;;8.19;100.00;100044.84;5051120;28;20057;-54
2022/12/22 04:14:23;;;;;;;20.42;13.20;;;;;;;8.15;100.00;100038.13;5054245;28;20423;-53
2022/12/22 04:17:00;;;;;;;22.13;14.57;;;;;;;8.12;100.00;100033.13;5054156;28;20102;-52
2022/12/22 04:19:29;;;;;;;22.33;15.50;;;;;;;8.15;100.00;100022.44;5054057;28;20044;-52
2022/12/22 04:21:58;;;;;;;22.75;15.50;;;;;;;8.11;100.00;100024.44;5051940;28;20044;-53
2022/12/22 04:24:26;;;;;;;21.75;15.20;;;;;;;8.14;100.00;100031.25;5051011;28;20518;-54
2022/12/22 04:26:54;;;;;;;22.08;15.85;;;;;;;8.20;100.00;100022.97;5053556;28;20045;-54
2022/12/22 04:29:22;;;;;;;22.83;15.77;;;;;;;8.16;100.00;100018.03;5052610;28;20057;-54
2022/12/22 04:31:50;;;;;;;24.45;16.05;;;;;;;8.15;100.00;100018.97;5053863;28;20431;-53
2022/12/22 04:34:19;;;;;;;26.52;16.65;;;;;;;8.13;100.00;100011.22;5053762;28;20534;-52
2022/12/22 04:36:48;;;;;;;26.13;17.13;;;;;;;8.21;100.00;100013.34;5053946;28;20128;-53
2022/12/22 04:39:16;;;;;;;25.60;16.30;;;;;;;8.20;100.00;100020.34;5053201;28;20045;-50
2022/12/22 04:41:44;;;;;;;24.45;16.42;;;;;;;8.21;100.00;100032.50;5049355;28;20052;-50
2022/12/22 04:44:12;;;;;;;24.73;16.75;;;;;;;8.23;100.00;100041.06;5050702;28;20447;-53
2022/12/22 04:46:40;;;;;;;24.42;16.70;;;;;;;8.25;100.00;100044.44;5053467;28;20091;-51
2022/12/22 04:49:09;;;;;;;25.73;16.23;;;;;;;8.25;100.00;100054.09;5052911;28;20072;-49
2022/12/22 04:51:37;;;;;;;23.63;15.68;;;;;;;8.23;100.00;100054.19;5051913;28;20091;-51
2022/12/22 04:54:07;;;;;;;23.15;15.88;;;;;;;8.26;100.00;100056.59;5052668;28;20068;-54
2022/12/22 04:56:35;;;;;;;26.85;16.10;;;;;;;8.29;100.00;100055.56;5049243;28;20045;-54
2022/12/22 04:59:03;;;;;;;22.85;15.57;;;;;;;8.31;100.00;100053.66;5051267;28;20048;-51
2022/12/22 05:01:31;;;;;;;22.77;16.23;;;;;;;8.29;100.00;100052.94;5053374;28;20045;-54
2022/12/22 05:04:00;;;;;;;24.00;16.00;;;;;;;8.31;100.00;100048.44;5050741;28;20478;-53
2022/12/22 05:06:28;;;;;;;23.05;16.50;;;;;;;8.33;100.00;100041.31;5049973;28;20095;-53
2022/12/22 05:08:56;;;;;;;24.98;15.98;;;;;;;8.34;100.00;100047.38;5053167;28;20048;-53
2022/12/22 05:11:25;;;;;;;25.67;16.30;;;;;;;8.33;100.00;100050.94;5052670;28;20060;-53
2022/12/22 05:13:54;;;;;;;24.30;16.00;;;;;;;8.33;100.00;100050.94;5051346;28;20059;-53
2022/12/22 05:16:22;;;;;;;24.15;17.05;;;;;;;8.33;100.00;100048.31;5047622;28;20650;-53
2022/12/22 05:18:50;;;;;;;24.92;16.48;;;;;;;8.29;100.00;100048.53;5051843;28;20076;-54
2022/12/22 05:21:20;;;;;;;26.77;16.13;;;;;;;8.31;100.00;100042.34;5051677;28;20057;-53
2022/12/22 05:23:49;;;;;;;24.58;16.20;;;;;;;8.32;100.00;100046.63;5052553;28;20059;-52
2022/12/22 05:26:19;;;;;;;22.25;15.57;;;;;;;8.32;100.00;100044.00;5052647;28;20041;-52
2022/12/22 05:28:49;;;;;;;21.65;15.30;;;;;;;8.30;100.00;100046.75;5052928;28;20487;-54
2022/12/22 05:31:20;;;;;;;22.40;15.30;;;;;;;8.30;100.00;100046.75;5052756;28;20041;-53
2022/12/22 05:33:48;;;;;;;22.50;14.57;;;;;;;8.30;100.00;100057.22;5052147;28;20061;-51
2022/12/22 05:36:18;;;;;;;23.25;15.73;;;;;;;8.29;100.00;100045.91;5049647;28;20136;-52
2022/12/22 05:38:46;;;;;;;23.35;15.10;;;;;;;8.29;100.00;100048.53;5049851;28;20041;-53
2022/12/22 05:41:14;;;;;;;24.50;15.80;;;;;;;8.32;100.00;100044.00;5050768;28;20091;-57
2022/12/22 05:43:43;;;;;;;21.85;14.55;;;;;;;8.31;100.00;100048.44;5049363;28;20056;-57
2022/12/22 05:46:12;;;;;;;22.08;15.77;;;;;;;8.31;100.00;100044.97;5052122;28;20051;-52
2022/12/22 05:48:40;;;;;;;22.52;14.98;;;;;;;8.31;100.00;100053.66;5052893;28;20148;-53
2022/12/22 05:51:09;;;;;;;24.00;15.85;;;;;;;8.30;100.00;100046.75;5052426;28;20045;-57
2022/12/22 05:53:40;;;;;;;23.80;15.40;;;;;;;8.32;100.00;100044.00;5052613;28;20121;-57
2022/12/22 05:56:09;;;;;;;22.38;14.85;;;;;;;8.29;100.00;100051.16;5049763;28;20048;-56
2022/12/22 05:58:39;;;;;;;20.50;14.90;;;;;;;8.28;100.00;100049.47;5048823;28;20064;-54
2022/12/22 06:01:07;;;;;;;21.33;14.85;;;;;;;8.30;100.00;100054.59;5052920;28;20107;-56
2022/12/22 06:03:36;;;;;;;22.63;15.15;;;;;;;8.31;100.00;100058.06;5052072;28;20040;-56
2022/12/22 06:06:05;;;;;;;23.55;15.77;;;;;;;8.30;100.00;100067.69;5052516;28;20044;-56
2022/12/22 06:08:36;;;;;;;21.00;14.35;;;;;;;8.31;100.00;100063.31;5052503;28;20049;-53
2022/12/22 06:11:05;;;;;;;20.52;14.73;;;;;;;8.31;100.00;100072.00;5052064;28;20132;-52
2022/12/22 06:13:33;;;;;;;24.75;15.75;;;;;;;8.31;100.00;100076.41;5052280;28;20134;-57
2022/12/22 06:16:01;;;;;;;21.40;15.60;;;;;;;8.30;100.00;100080.81;5050010;28;20073;-56
2022/12/22 06:18:29;;;;;;;22.13;14.60;;;;;;;8.29;100.00;100090.44;5048454;28;20524;-56
2022/12/22 06:20:59;;;;;;;21.88;15.23;;;;;;;8.32;100.00;100096.41;5050548;28;20049;-53
2022/12/22 06:23:27;;;;;;;21.15;15.10;;;;;;;8.34;100.00;100094.53;5051169;28;20059;-53
2022/12/22 06:25:56;;;;;;;22.73;15.18;;;;;;;8.31;100.00;100100.00;5052293;28;20072;-53
2022/12/22 06:28:24;;;;;;;22.98;15.32;;;;;;;8.33;100.00;100105.97;5051924;28;20053;-57
2022/12/22 06:30:54;;;;;;;26.17;16.20;;;;;;;8.35;100.00;100115.41;5048737;28;20480;-53
2022/12/22 06:33:25;;;;;;;25.52;15.55;;;;;;;8.31;100.00;100113.09;5050469;28;20044;-57
2022/12/22 06:35:53;;;;;;;26.35;16.08;;;;;;;8.32;100.00;100113.00;5049679;28;20045;-56
2022/12/22 06:38:27;;;;;;;;;;;;;;;8.32;100.00;100117.38;5049846;28;20504;-56
2022/12/22 06:40:56;;;;;;;24.73;15.15;;;;;;;8.36;100.00;100121.50;5052005;28;20004;-56
2022/12/22 06:43:23;;;;;;;28.80;16.02;;;;;;;8.34;100.00;100126.81;5051964;28;20044;-56
2022/12/22 06:45:52;;;;;;;28.25;16.25;;;;;;;8.35;100.00;100125.88;5052460;28;20049;-56
2022/12/22 06:48:20;;;;;;;27.88;15.40;;;;;;;8.38;100.00;100122.22;5052090;28;20415;-56
2022/12/22 06:50:49;;;;;;;27.08;15.45;;;;;;;8.37;100.00;100125.78;5048488;28;20669;-53
2022/12/22 06:53:17;;;;;;;31.10;16.85;;;;;;;8.32;100.00;100128.72;5048459;28;20560;-53
2022/12/22 06:55:46;;;;;;;27.73;15.63;;;;;;;8.33;100.00;100126.91;5051620;28;20132;-54
2022/12/22 06:58:14;;;;;;;31.10;14.73;;;;;;;8.35;100.00;100133.72;5051883;28;20052;-53
2022/12/22 07:00:44;;;;;;;29.45;15.55;;;;;;;8.36;100.00;100131.97;5051950;28;20539;-54
2022/12/22 07:03:12;;;;;;;36.33;17.25;;;;;;;8.35;100.00;100144.22;5051425;28;20053;-53
2022/12/22 07:05:41;;;;;;;36.95;16.35;;;;;;;8.35;100.00;100152.06;5051582;28;20041;-51
2022/12/22 07:08:09;;;;;;;34.92;16.40;;;;;;;8.34;100.00;100155.63;5049874;28;20075;-52
2022/12/22 07:13:26;;;;;;;34.60;15.65;;;;;;;8.37;100.00;100149.34;5050583;28;20053;-51
2022/12/22 07:15:54;;;;;;;34.40;15.60;;;;;;;8.42;100.00;100139.41;5055049;28;20056;-53
2022/12/22 07:18:29;;;;;;;38.05;16.58;;;;;;;8.37;100.00;100147.59;5054564;28;20060;-52
2022/12/22 07:20:58;;;;;;;34.40;15.00;;;;;;;8.39;100.00;100147.47;5051739;28;20091;-53
2022/12/22 07:23:26;;;;;;;33.55;15.63;;;;;;;8.36;100.00;100161.63;5053649;28;20492;-53
2022/12/22 07:25:54;;;;;;;31.00;15.07;;;;;;;8.35;100.00;100154.69;5055193;28;20029;-53
2022/12/22 07:28:27;;;;;;;33.75;14.40;;;;;;;8.33;100.00;100169.69;5055034;28;20057;-53
2022/12/22 07:30:55;;;;;;;27.40;13.48;;;;;;;8.31;100.00;100165.50;5051930;28;20053;-53
2022/12/22 07:33:24;;;;;;;29.35;14.23;;;;;;;8.27;100.00;100177.94;5049734;28;20127;-52
2022/12/22 07:36:04;;;;;;;25.77;13.57;;;;;;;8.25;100.00;100177.22;5053622;28;20118;-51
2022/12/22 07:38:35;;;;;;;26.50;13.10;;;;;;;8.23;100.00;100174.69;5054806;28;20064;-50
2022/12/22 07:42:43;;;;;;;26.10;13.50;;;;;;;8.21;100.00;100186.22;5054859;28;20033;-56
2022/12/22 07:43:54;;;;;;;23.38;12.57;;;;;;;8.18;100.00;100199.50;5053006;28;20131;-57
2022/12/22 07:46:22;;;;;;;23.83;12.90;;;;;;;8.18;100.00;100202.13;5050082;28;20056;-57
2022/12/22 07:51:37;;;;;;;25.60;12.88;;;;;;;8.16;100.00;100211.88;5051111;28;20431;-53
2022/12/22 07:54:06;;;;;;;25.30;12.55;;;;;;;8.09;100.00;100227.16;5052238;28;20559;-52
2022/12/22 07:56:35;;;;;;;19.75;10.55;;;;;;;8.13;100.00;100221.59;5054443;28;20041;-53
2022/12/22 07:59:04;;;;;;;23.83;12.70;;;;;;;8.12;100.00;100238.25;5054374;28;20045;-53
2022/12/22 08:01:32;;;;;;;25.05;12.68;;;;;;;8.14;100.00;100240.78;5054252;28;20396;-51
2022/12/22 08:04:01;;;;;;;23.92;11.18;;;;;;;8.12;100.00;100246.09;5054607;28;20083;-53
2022/12/22 08:06:29;;;;;;;25.17;12.57;;;;;;;8.10;100.00;100263.72;5054443;28;20234;-57
2022/12/22 08:08:57;;;;;;;25.20;12.70;;;;;;;8.05;100.00;100254.47;5053410;28;20072;-56
2022/12/22 08:11:25;;;;;;;24.83;13.68;;;;;;;8.07;100.00;100261.28;5051199;28;20060;-53
2022/12/22 08:13:53;;;;;;;21.67;11.88;;;;;;;8.10;100.00;100265.50;5053481;28;20049;-53
2022/12/22 08:16:30;;;;;;;24.08;13.38;;;;;;;8.06;100.00;100264.84;5054510;28;20139;-57
2022/12/22 08:18:58;;;;;;;25.38;12.65;;;;;;;8.05;100.00;100268.38;5054293;28;20051;-57
2022/12/22 08:21:26;;;;;;;24.52;13.73;;;;;;;8.08;100.00;100269.97;5054222;28;20044;-52
2022/12/22 08:23:55;;;;;;;31.05;15.70;;;;;;;8.04;100.00;100276.34;5052219;28;20098;-54
2022/12/22 08:26:31;;;;;;;27.08;14.73;;;;;;;8.03;100.00;100272.91;5050513;28;20075;-57
2022/12/22 08:29:03;;;;;;;30.23;15.05;;;;;;;8.07;100.00;100281.38;5053384;28;20098;-51
2022/12/22 08:31:33;;;;;;;27.92;14.85;;;;;;;8.09;100.00;100287.38;5053766;28;20128;-53
2022/12/22 08:34:05;;;;;;;30.50;14.88;;;;;;;8.04;100.00;100297.31;5054388;28;20037;-57
2022/12/22 08:36:38;;;;;;;29.38;15.13;;;;;;;8.11;100.00;100288.09;5053631;28;20048;-52
2022/12/22 08:39:07;;;;;;;31.73;15.93;;;;;;;8.15;100.00;100289.59;5053904;28;20048;-52
2022/12/22 08:41:51;;;;;;;29.27;15.60;;;;;;;8.18;100.00;100296.41;5053547;28;20041;-54
2022/12/22 08:44:22;;;;;;;29.92;14.43;;;;;;;8.23;100.00;100297.81;5050758;28;20496;-54
2022/12/22 08:46:53;;;;;;;32.25;16.67;;;;;;;8.25;100.00;100301.19;5051995;28;20068;-53
2022/12/22 08:49:22;;;;;;;37.17;18.00;;;;;;;8.25;100.00;100301.19;5053648;28;20040;-52
2022/12/22 08:51:50;;;;;;;33.72;16.33;;;;;;;8.29;100.00;100302.66;5052211;28;20391;-52
2022/12/22 08:54:18;;;;;;;29.80;15.40;;;;;;;8.34;100.00;100307.59;5052123;28;20060;-53
2022/12/22 08:56:48;;;;;;;33.00;16.98;;;;;;;8.33;100.00;100308.56;5053752;28;20566;-52
2022/12/22 08:59:16;;;;;;;32.95;16.35;;;;;;;8.33;100.00;100319.03;5053728;28;20049;-57
2022/12/22 09:01:49;;;;;;;31.50;16.77;;;;;;;8.31;100.00;100338.41;5053511;28;20124;-58
2022/12/22 09:04:21;;;;;;;29.67;17.13;;;;;;;8.26;100.00;100344.78;5050812;28;20044;-57
2022/12/22 09:06:52;;;;;;;32.38;16.65;;;;;;;8.32;100.00;100342.69;5050603;28;20041;-57
2022/12/22 09:09:20;;;;;;;35.38;17.05;;;;;;;8.30;100.00;100345.41;5053447;28;20053;-57
2022/12/22 09:11:49;;;;;;;32.45;17.02;;;;;;;8.26;100.00;100350.03;5052940;28;20080;-56
2022/12/22 09:14:17;;;;;;;30.42;16.00;;;;;;;8.26;100.00;100355.25;5050726;28;20049;-57
2022/12/22 09:16:45;;;;;;;33.40;18.23;;;;;;;8.25;100.00;100360.59;5048549;28;20049;-57
2022/12/22 09:19:14;;;;;;;35.67;18.13;;;;;;;8.19;100.00;100364.44;5052815;28;20055;-57
2022/12/22 09:21:43;;;;;;;36.65;17.45;;;;;;;8.20;100.00;100371.34;5052566;28;20045;-57
2022/12/22 09:24:13;;;;;;;35.17;18.20;;;;;;;8.23;100.00;100380.81;5052347;28;20049;-57
2022/12/22 09:26:42;;;;;;;31.50;17.20;;;;;;;8.23;100.00;100386.03;5052630;28;20562;-57
2022/12/22 09:29:10;;;;;;;34.90;17.42;;;;;;;8.24;100.00;100388.56;5050297;28;20230;-57
2022/12/22 09:31:40;;;;;;;32.22;16.67;;;;;;;8.22;100.00;100382.59;5048874;28;20072;-57
2022/12/22 09:34:08;;;;;;;34.13;17.35;;;;;;;8.21;100.00;100394.00;5051552;28;20136;-57
2022/12/22 09:36:46;;;;;;;34.42;17.38;;;;;;;8.13;100.00;100399.72;5052256;28;20043;-57
2022/12/22 09:39:15;;;;;;;35.10;17.25;;;;;;;8.17;100.00;100397.75;5052790;28;20119;-57
2022/12/22 09:41:46;;;;;;;31.08;16.13;;;;;;;8.21;100.00;100401.03;5052239;28;20546;-57
2022/12/22 09:44:22;;;;;;;31.48;16.70;;;;;;;8.23;100.00;100404.38;5051867;28;20041;-57
2022/12/22 09:46:52;;;;;;;34.83;17.00;;;;;;;8.23;100.00;100407.00;5047790;28;20492;-57
2022/12/22 09:49:21;;;;;;;33.28;16.52;;;;;;;8.23;100.00;100396.53;5051775;28;20052;-57
2022/12/22 09:51:52;;;;;;;30.95;15.38;;;;;;;8.21;100.00;100404.47;5051985;28;20110;-57
2022/12/22 09:54:21;;;;;;;33.10;15.93;;;;;;;8.20;100.00;100408.03;5051961;28;20044;-57
2022/12/22 09:56:49;;;;;;;32.20;16.02;;;;;;;8.25;100.00;100408.59;5052346;28;20149;-57
2022/12/22 09:59:20;;;;;;;33.33;15.82;;;;;;;8.22;100.00;100406.16;5051133;28;20045;-57
2022/12/22 10:02:05;;;;;;;33.35;16.73;;;;;;;8.24;100.00;100406.06;5047642;28;20190;-57
2022/12/22 10:04:53;;;;;;;33.35;16.10;;;;;;;8.25;100.00;100411.22;5051222;28;20037;-57
2022/12/22 10:07:30;;;;;;;34.33;15.40;;;;;;;8.23;100.00;100410.44;5052271;28;20488;-57
2022/12/22 10:10:04;;;;;;;32.53;15.80;;;;;;;8.19;100.00;100410.75;5049816;28;20084;-57
2022/12/22 10:12:32;;;;;;;33.92;15.70;;;;;;;8.22;100.00;100428.88;5048228;28;20132;-57
2022/12/22 10:15:03;;;;;;;33.30;14.60;;;;;;;8.15;100.00;100419.72;5051878;28;20049;-57
2022/12/22 10:17:33;;;;;;;37.20;14.00;;;;;;;8.13;100.00;100412.81;5051041;28;20049;-57
2022/12/22 10:20:24;;;;;;;33.00;14.52;;;;;;;8.04;100.00;100421.22;5052592;28;20053;-57
2022/12/22 10:22:57;;;;;;;29.95;13.52;;;;;;;8.08;100.00;100424.50;5052129;28;20056;-57
2022/12/22 10:25:27;;;;;;;;;;;;;;;8.02;100.00;100424.91;5050191;28;20059;-57
2022/12/22 10:28:20;;;;;;;27.85;12.13;;;;;;;7.92;100.00;100425.44;5049438;28;19966;-57
2022/12/22 10:30:49;;;;;;;27.38;12.52;;;;;;;7.88;100.00;100433.56;5052504;28;20075;-57
2022/12/22 10:33:18;;;;;;;27.33;11.63;;;;;;;7.87;100.00;100432.75;5052105;28;20053;-57
2022/12/22 10:35:49;;;;;;;26.83;12.23;;;;;;;7.92;100.00;100441.16;5052224;28;20400;-57
2022/12/22 10:38:23;;;;;;;26.15;11.38;;;;;;;7.90;100.00;100443.03;5052101;28;20075;-57
2022/12/22 10:40:55;;;;;;;31.05;11.32;;;;;;;7.89;100.00;100451.78;5052125;28;20057;-57
2022/12/22 10:43:33;;;;;;;23.98;10.95;;;;;;;7.91;100.00;100449.94;5052104;28;20045;-57
2022/12/22 10:46:03;;;;;;;24.80;11.07;;;;;;;7.79;100.00;100450.69;5052059;28;20045;-57
2022/12/22 10:48:33;;;;;;;23.90;10.93;;;;;;;7.82;100.00;100454.91;5051785;28;20442;-57
2022/12/22 10:51:04;;;;;;;28.98;10.77;;;;;;;7.85;100.00;100446.84;5055953;28;20055;-57
2022/12/22 10:53:44;;;;;;;22.05;10.35;;;;;;;7.79;100.00;100450.69;5054463;28;20041;-57
2022/12/22 10:56:24;;;;;;;24.52;10.50;;;;;;;7.75;100.00;100455.25;5052754;28;20068;-50
2022/12/22 10:58:54;;;;;;;25.27;9.77;;;;;;;7.78;100.00;100457.72;5054682;28;20484;-53
2022/12/22 11:01:28;;;;;;;22.77;9.77;;;;;;;7.84;100.00;100458.25;5054216;28;20053;-57
2022/12/22 11:03:57;;;;;;;24.42;10.27;;;;;;;7.86;100.00;100454.59;5052298;28;20057;-57
2022/12/22 11:06:25;;;;;;;22.30;9.88;;;;;;;7.82;100.00;100460.97;5054349;28;20045;-57
2022/12/22 11:08:54;;;;;;;22.90;9.98;;;;;;;7.87;100.00;100468.56;5055688;28;20041;-59
2022/12/22 11:11:50;;;;;;;24.27;9.95;;;;;;;7.82;100.00;100471.44;5054366;28;20111;-57
2022/12/22 11:14:33;;;;;;;21.38;9.55;;;;;;;7.86;100.00;100472.94;5052525;28;20091;-58
2022/12/22 11:17:07;;;;;;;19.20;8.90;;;;;;;7.90;100.00;100473.59;5053761;28;20479;-53
2022/12/22 11:19:45;;;;;;;20.77;9.10;;;;;;;7.92;100.00;100477.81;5055256;28;20500;-53
2022/12/22 11:22:28;;;;;;;22.83;9.88;;;;;;;8.03;100.00;100484.19;5055178;28;20055;-52
2022/12/22 11:25:17;;;;;;;18.00;9.63;;;;;;;8.08;100.00;100487.38;5054115;28;20107;-52
2022/12/22 11:27:53;;;;;;;24.20;11.10;;;;;;;8.03;100.00;100484.19;5051184;28;20444;-50
2022/12/22 11:30:27;;;;;;;21.33;10.32;;;;;;;8.04;100.00;100476.22;5055061;28;20133;-50
2022/12/22 11:33:15;;;;;;;27.65;10.50;;;;;;;8.02;100.00;100488.59;5055055;28;20049;-52
2022/12/22 11:35:57;;;;;;;20.05;10.82;;;;;;;8.06;100.00;100487.47;5052508;28;20057;-52
2022/12/22 11:38:46;;;;;;;23.77;11.03;;;;;;;8.13;100.00;100495.78;5051976;28;20041;-54
2022/12/22 11:41:39;;;;;;;25.15;11.88;;;;;;;8.17;100.00;100499.09;5054982;28;20047;-52
2022/12/22 11:44:26;;;;;;;28.02;11.52;;;;;;;8.26;100.00;100504.59;5054766;28;20431;-51
2022/12/22 11:47:02;;;;;;;24.83;12.57;;;;;;;8.22;100.00;100507.47;5049404;28;20377;-53
2022/12/22 11:49:51;;;;;;;25.38;13.50;;;;;;;8.08;100.00;100500.47;5050719;28;20076;-52
2022/12/22 11:52:39;;;;;;;28.98;14.75;;;;;;;8.12;100.00;100504.59;5054783;28;20408;-58
2022/12/22 11:55:17;;;;;;;28.05;14.93;;;;;;;8.16;100.00;100500.84;5054746;28;20419;-58
2022/12/22 11:58:01;;;;;;;32.65;17.60;;;;;;;8.17;100.00;100493.84;5054550;28;20112;-53
2022/12/22 12:00:33;;;;;;;32.63;16.58;;;;;;;8.24;100.00;100500.38;5052460;28;20045;-58
2022/12/22 12:03:49;;;;;;;36.13;18.23;;;;;;;8.24;100.00;100500.38;5050522;28;20427;-53
2022/12/22 12:06:29;;;;;;;34.33;17.67;;;;;;;8.26;100.00;100495.88;5054459;28;20048;-53
2022/12/22 12:09:16;;;;;;;31.70;18.52;;;;;;;8.31;100.00;100500.84;5054680;28;20507;-53
2022/12/22 12:11:53;;;;;;;34.13;17.90;;;;;;;8.31;100.00;100501.69;5050574;28;20111;-51
2022/12/22 12:14:31;;;;;;;34.35;18.13;;;;;;;8.33;100.00;100498.97;5050952;28;20049;-49
2022/12/22 12:17:02;;;;;;;31.13;18.20;;;;;;;8.41;100.00;100488.84;5053813;28;20049;-50
2022/12/22 12:20:03;;;;;;;34.05;18.58;;;;;;;8.46;100.00;100492.91;5053800;28;20515;-50
2022/12/22 12:22:41;;;;;;;36.22;18.67;;;;;;;8.50;100.00;100490.94;5049970;28;20098;-50
2022/12/22 12:25:21;;;;;;;34.55;18.85;;;;;;;8.49;100.00;100485.81;5051012;28;20041;-51
2022/12/22 12:28:15;;;;;;;32.72;17.20;;;;;;;8.52;100.00;100477.75;5054021;28;20057;-53
2022/12/22 12:30:53;;;;;;;32.67;16.73;;;;;;;8.60;100.00;100481.59;5053859;28;20492;-52
2022/12/22 12:33:31;;;;;;;34.05;18.48;;;;;;;8.57;100.00;100478.31;5053921;28;20049;-53
2022/12/22 12:36:06;;;;;;;33.90;18.35;;;;;;;8.66;100.00;100469.00;5052121;28;20044;-53
2022/12/22 12:38:44;;;;;;;30.48;17.10;;;;;;;8.68;100.00;100473.22;5050330;28;20053;-53
2022/12/22 12:41:40;;;;;;;30.58;15.75;;;;;;;8.78;100.00;100470.84;5053646;28;20040;-51
2022/12/22 12:44:12;;;;;;;26.52;14.35;;;;;;;8.80;100.00;100469.00;5053899;28;20045;-52
2022/12/22 12:46:52;;;;;;;;;;;;;;;8.81;100.00;100462.81;5054118;28;20496;-52
2022/12/22 12:49:51;;;;;;;22.33;10.55;;;;;;;8.83;100.00;100460.91;5053545;28;19927;-53
2022/12/22 12:52:58;;;;;;;24.00;11.52;;;;;;;8.85;100.00;100461.69;5053655;28;20041;-52
2022/12/22 12:55:31;;;;;;;19.10;9.68;;;;;;;8.87;100.00;100456.34;5053346;28;20052;-53
2022/12/22 12:58:02;;;;;;;19.98;9.07;;;;;;;8.93;100.00;100454.16;5053502;28;20116;-52
2022/12/22 13:00:47;;;;;;;17.33;9.15;;;;;;;8.99;100.00;100458.16;5053820;28;20056;-51
2022/12/22 13:03:39;;;;;;;20.17;10.82;;;;;;;9.01;100.00;100458.06;5053334;28;20044;-53
2022/12/22 13:06:52;;;;;;;20.40;10.10;;;;;;;8.95;100.00;100457.50;5053446;28;20056;-53
2022/12/22 13:09:21;;;;;;;21.83;9.30;;;;;;;8.87;100.00;100454.53;5053054;28;20052;-52
2022/12/22 13:12:38;;;;;;;18.73;9.15;;;;;;;8.76;100.00;100457.00;5051951;28;20061;-54
2022/12/22 13:15:27;;;;;;;18.45;8.65;;;;;;;8.81;100.00;100462.81;5052862;28;20048;-50
2022/12/22 13:17:56;;;;;;;16.20;8.65;;;;;;;8.74;100.00;100469.38;5052937;28;20041;-52
2022/12/22 13:20:29;;;;;;;20.17;9.40;;;;;;;8.64;100.00;100469.09;5052687;28;20049;-51
2022/12/22 13:23:00;;;;;;;21.42;9.98;;;;;;;8.71;100.00;100478.28;5052436;28;20135;-51
2022/12/22 13:25:40;;;;;;;22.42;9.98;;;;;;;8.64;100.00;100479.59;5052258;28;20103;-53
2022/12/22 13:28:15;;;;;;;20.35;10.50;;;;;;;8.62;100.00;100482.31;5052549;28;20059;-53
2022/12/22 13:30:47;;;;;;;23.40;11.50;;;;;;;8.62;100.00;100486.72;5052662;28;20507;-52
2022/12/22 13:33:19;;;;;;;21.70;11.98;;;;;;;8.68;100.00;100483.72;5051415;28;20082;-52
2022/12/22 13:35:50;;;;;;;19.98;11.95;;;;;;;8.66;100.00;100484.75;5052764;28;20041;-52
2022/12/22 13:38:31;;;;;;;22.98;13.13;;;;;;;8.72;100.00;100494.84;5052720;28;20055;-48
2022/12/22 13:41:02;;;;;;;22.83;13.45;;;;;;;8.57;100.00;100496.66;5052632;28;20049;-52
2022/12/22 13:43:33;;;;;;;24.80;14.10;;;;;;;8.61;100.00;100491.13;5052762;28;20043;-57
2022/12/22 13:46:03;;;;;;;23.67;14.15;;;;;;;8.61;100.00;100491.13;5052713;28;20504;-57
2022/12/22 13:48:38;;;;;;;23.92;14.82;;;;;;;8.65;100.00;100488.31;5052576;28;20045;-58
2022/12/22 13:51:22;;;;;;;25.55;15.45;;;;;;;8.60;100.00;100493.84;5052690;28;20051;-57
2022/12/22 13:53:54;;;;;;;25.90;16.27;;;;;;;8.65;100.00;100490.94;5052808;28;20048;-58
2022/12/22 13:56:41;;;;;;;31.17;16.88;;;;;;;8.58;100.00;100491.31;5052547;28;20048;-57
2022/12/22 13:59:22;;;;;;;27.00;17.40;;;;;;;8.55;100.00;100490.66;5051757;28;20384;-52
2022/12/22 14:01:50;;;;;;;30.02;18.50;;;;;;;8.62;100.00;100484.94;5046792;28;20397;-51
2022/12/22 14:04:18;;;;;;;28.73;17.70;;;;;;;8.67;100.00;100481.19;5051537;28;20175;-53
2022/12/22 14:06:48;;;;;;;28.25;17.25;;;;;;;8.62;100.00;100479.69;5052292;28;20115;-53
2022/12/22 14:09:18;;;;;;;27.65;16.48;;;;;;;8.65;100.00;100469.97;5052566;28;20377;-51
2022/12/22 14:11:50;;;;;;;29.05;17.58;;;;;;;8.71;100.00;100470.44;5052410;28;20087;-52
2022/12/22 14:14:24;;;;;;;26.42;18.02;;;;;;;8.74;100.00;100467.59;5052367;28;20175;-53
2022/12/22 14:16:55;;;;;;;30.80;18.63;;;;;;;8.63;100.00;100462.22;5048196;28;20045;-58
2022/12/22 14:19:24;;;;;;;31.15;19.13;;;;;;;8.60;100.00;100457.13;5049907;28;20037;-51
2022/12/22 14:22:03;;;;;;;30.27;19.17;;;;;;;8.50;100.00;100454.25;5052566;28;20049;-58
2022/12/22 14:24:35;;;;;;;29.23;18.17;;;;;;;8.53;100.00;100454.06;5055829;28;20098;-58
2022/12/22 14:27:12;;;;;;;34.85;20.10;;;;;;;8.42;100.00;100454.69;5053994;28;20063;-58
2022/12/22 14:29:40;;;;;;;32.60;19.92;;;;;;;8.49;100.00;100459.59;5053773;28;20102;-58
2022/12/22 14:32:29;;;;;;;32.67;21.10;;;;;;;8.49;100.00;100455.19;5056528;28;20049;-58
2022/12/22 14:34:57;;;;;;;33.13;20.58;;;;;;;8.44;100.00;100452.84;5056187;28;20114;-58
2022/12/22 14:37:26;;;;;;;33.72;20.40;;;;;;;8.46;100.00;100456.22;5056196;28;20048;-58
2022/12/22 14:40:00;;;;;;;32.63;19.77;;;;;;;8.48;100.00;100450.03;5055746;28;20049;-58
2022/12/22 14:42:28;;;;;;;30.50;20.77;;;;;;;8.42;100.00;100449.44;5053012;28;20045;-58
2022/12/22 14:44:57;;;;;;;32.70;19.83;;;;;;;8.39;100.00;100447.03;5054270;28;20057;-58
2022/12/22 14:47:25;;;;;;;31.60;21.27;;;;;;;8.50;100.00;100449.00;5055966;28;20075;-58
2022/12/22 14:49:58;;;;;;;30.50;20.73;;;;;;;8.46;100.00;100440.50;5055926;28;20041;-58
2022/12/22 14:52:38;;;;;;;32.60;20.95;;;;;;;8.48;100.00;100432.56;5056028;28;20045;-58
2022/12/22 14:55:25;;;;;;;34.90;20.53;;;;;;;8.39;100.00;100428.69;5054794;28;20041;-58
2022/12/22 14:57:56;;;;;;;34.15;21.05;;;;;;;8.34;100.00;100427.28;5055816;28;20052;-58
2022/12/22 15:00:31;;;;;;;32.30;19.55;;;;;;;8.29;100.00;100431.03;5055712;28;20044;-58
2022/12/22 15:03:02;;;;;;;30.63;19.52;;;;;;;8.22;100.00;100424.50;5055842;28;20049;-54
2022/12/22 15:05:34;;;;;;;29.98;19.48;;;;;;;8.25;100.00;100420.88;5055647;28;20037;-53
2022/12/22 15:08:05;;;;;;;29.92;19.45;;;;;;;8.29;100.00;100425.81;5055609;28;20045;-52
2022/12/22 15:10:42;;;;;;;29.60;19.42;;;;;;;8.34;100.00;100430.75;5055578;28;20041;-52
2022/12/22 15:13:22;;;;;;;32.80;18.52;;;;;;;8.36;100.00;100428.88;5052461;28;20118;-52
2022/12/22 15:15:50;;;;;;;32.38;20.23;;;;;;;8.27;100.00;100419.81;5052611;28;20052;-53